createdAt,value
2022-09-23T00:00:50.070Z,95490.84
2022-09-23T00:02:49.124Z,95483.63
2022-09-23T00:04:47.905Z,95485.28
2022-09-23T00:06:45.949Z,95491.34
2022-09-23T00:08:44.248Z,95483.94
2022-09-23T00:10:42.297Z,95483.44
2022-09-23T00:12:40.496Z,95482.00
2022-09-23T00:14:39.994Z,95477.72
2022-09-23T00:16:40.168Z,95475.31
2022-09-23T00:18:38.850Z,95478.41
2022-09-23T00:20:37.371Z,95475.47
2022-09-23T00:22:35.587Z,95476.09
2022-09-23T00:24:33.820Z,95474.53
2022-09-23T00:26:31.965Z,95472.84
2022-09-23T00:28:30.358Z,95476.13
2022-09-23T00:30:28.667Z,95469.66
2022-09-23T00:32:28.369Z,95465.81
2022-09-23T00:34:26.441Z,95471.38
2022-09-23T00:36:25.558Z,95467.19
2022-09-23T00:38:23.657Z,95464.38
2022-09-23T00:40:21.786Z,95466.63
2022-09-23T00:42:22.754Z,95474.91
2022-09-23T00:44:43.974Z,95469.84
2022-09-23T00:46:44.524Z,95465.09
2022-09-23T00:48:45.101Z,95464.38
2022-09-23T00:50:46.926Z,95468.06
2022-09-23T00:52:45.694Z,95467.09
2022-09-23T00:54:46.708Z,95464.06
2022-09-23T00:56:45.359Z,95460.25
2022-09-23T00:58:45.808Z,95460.47
2022-09-23T01:00:44.047Z,95462.34
2022-09-23T01:02:42.204Z,95461.75
2022-09-23T01:04:42.412Z,95466.75
2022-09-23T01:06:40.969Z,95460.97
2022-09-23T01:08:39.852Z,95467.66
2022-09-23T01:10:48.760Z,95466.59
2022-09-23T01:13:00.618Z,95475.09
2022-09-23T01:15:10.561Z,95467.56
2022-09-23T01:17:17.396Z,95469.88
2022-09-23T01:19:35.805Z,95469.94
2022-09-23T01:21:48.419Z,95468.72
2022-09-23T01:24:34.787Z,95466.50
2022-09-23T01:26:54.333Z,95470.44
2022-09-23T01:29:15.163Z,95476.16
2022-09-23T01:31:22.486Z,95468.19
2022-09-23T01:33:25.847Z,95469.88
2022-09-23T01:35:30.452Z,95478.56
2022-09-23T01:37:35.835Z,95480.66
2022-09-23T01:39:38.768Z,95478.16
2022-09-23T01:41:51.896Z,95475.53
2022-09-23T01:43:59.292Z,95479.13
2022-09-23T01:46:00.527Z,95472.50
2022-09-23T01:48:10.420Z,95479.41
2022-09-23T01:50:27.024Z,95480.75
2022-09-23T01:52:29.525Z,95473.72
2022-09-23T01:54:33.471Z,95477.28
2022-09-23T01:56:37.726Z,95484.22
2022-09-23T01:58:44.234Z,95473.72
2022-09-23T02:00:58.537Z,95474.03
2022-09-23T02:03:04.924Z,95480.56
2022-09-23T02:05:09.790Z,95481.00
2022-09-23T02:07:15.658Z,95471.69
2022-09-23T02:09:17.228Z,95477.88
2022-09-23T02:11:16.656Z,95482.16
2022-09-23T02:13:19.394Z,95477.53
2022-09-23T02:15:20.773Z,95483.72
2022-09-23T02:17:26.187Z,95481.94
2022-09-23T02:19:31.658Z,95478.59
2022-09-23T02:21:35.783Z,95473.78
2022-09-23T02:23:43.035Z,95468.97
2022-09-23T02:25:49.749Z,95475.47
2022-09-23T02:27:57.281Z,95485.31
2022-09-23T02:30:02.765Z,95480.53
2022-09-23T02:32:15.960Z,95486.81
2022-09-23T02:34:23.517Z,95485.56
2022-09-23T02:36:31.517Z,95489.09
2022-09-23T02:38:37.572Z,95481.38
2022-09-23T02:40:39.622Z,95478.22
2022-09-23T02:42:46.483Z,95475.84
2022-09-23T02:44:44.817Z,95488.28
2022-09-23T02:46:44.172Z,95486.81
2022-09-23T02:48:46.489Z,95486.06
2022-09-23T02:50:44.769Z,95484.31
2022-09-23T02:52:44.344Z,95488.88
2022-09-23T02:54:42.570Z,95489.94
2022-09-23T02:56:41.880Z,95499.78
2022-09-23T02:58:40.122Z,95494.94
2022-09-23T03:00:50.158Z,95485.31
2022-09-23T03:03:06.868Z,95493.91
2022-09-23T03:05:12.727Z,95490.53
2022-09-23T03:07:17.903Z,95499.41
2022-09-23T03:09:22.687Z,95491.50
2022-09-23T03:11:21.749Z,95495.78
2022-09-23T03:13:30.031Z,95493.47
2022-09-23T03:15:36.221Z,95496.69
2022-09-23T03:17:39.401Z,95496.25
2022-09-23T03:19:43.935Z,95492.97
2022-09-23T03:21:46.538Z,95491.50
2022-09-23T03:23:46.406Z,95498.69
2022-09-23T03:25:50.141Z,95499.84
2022-09-23T03:27:48.416Z,95490.97
2022-09-23T03:29:50.089Z,95503.00
2022-09-23T03:31:48.734Z,95501.22
2022-09-23T03:33:51.433Z,95499.63
2022-09-23T03:36:11.642Z,95498.81
2022-09-23T03:38:16.310Z,95498.81
2022-09-23T03:40:19.466Z,95489.31
2022-09-23T03:42:22.499Z,95493.97
2022-09-23T03:44:21.899Z,95499.38
2022-09-23T03:46:20.075Z,95495.72
2022-09-23T03:48:18.427Z,95497.69
2022-09-23T03:50:17.822Z,95491.72
2022-09-23T03:52:16.242Z,95497.06
2022-09-23T03:54:14.317Z,95504.59
2022-09-23T03:56:12.585Z,95499.81
2022-09-23T03:58:12.486Z,95513.19
2022-09-23T04:00:12.183Z,95507.78
2022-09-23T04:02:12.044Z,95504.56
2022-09-23T04:04:10.532Z,95510.41
2022-09-23T04:06:09.133Z,95508.44
2022-09-23T04:08:07.631Z,95508.63
2022-09-23T04:10:07.174Z,95513.09
2022-09-23T04:12:06.207Z,95506.31
2022-09-23T04:14:06.228Z,95512.38
2022-09-23T04:16:04.424Z,95513.66
2022-09-23T04:18:02.640Z,95515.66
2022-09-23T04:20:00.944Z,95522.09
2022-09-23T04:21:59.027Z,95518.22
2022-09-23T04:23:57.140Z,95520.56
2022-09-23T04:25:55.606Z,95521.72
2022-09-23T04:27:53.759Z,95513.13
2022-09-23T04:29:53.334Z,95519.09
2022-09-23T04:31:52.266Z,95525.50
2022-09-23T04:33:50.494Z,95525.28
2022-09-23T04:35:51.288Z,95530.97
2022-09-23T04:37:49.582Z,95526.59
2022-09-23T04:39:47.880Z,95532.88
2022-09-23T04:41:46.654Z,95528.25
2022-09-23T04:43:45.141Z,95527.44
2022-09-23T04:45:45.315Z,95531.91
2022-09-23T04:47:43.493Z,95540.38
2022-09-23T04:49:42.331Z,95541.63
2022-09-23T04:51:43.339Z,95542.06
2022-09-23T04:53:43.227Z,95549.19
2022-09-23T04:55:44.566Z,95542.50
2022-09-23T04:57:42.679Z,95547.28
2022-09-23T04:59:41.418Z,95550.44
2022-09-23T05:01:41.672Z,95541.84
2022-09-23T05:03:40.511Z,95548.63
2022-09-23T05:05:38.610Z,95552.38
2022-09-23T05:07:36.972Z,95550.81
2022-09-23T05:09:35.403Z,95557.56
2022-09-23T05:11:33.863Z,95553.16
2022-09-23T05:13:32.729Z,95547.13
2022-09-23T05:15:30.781Z,95547.88
2022-09-23T05:17:31.299Z,95548.19
2022-09-23T05:19:29.666Z,95550.44
2022-09-23T05:21:29.116Z,95548.41
2022-09-23T05:23:27.763Z,95552.59
2022-09-23T05:25:26.179Z,95567.72
2022-09-23T05:27:24.249Z,95560.81
2022-09-23T05:29:22.396Z,95559.75
2022-09-23T05:31:22.593Z,95565.59
2022-09-23T05:33:22.403Z,95557.84
2022-09-23T05:35:20.677Z,95562.63
2022-09-23T05:37:18.714Z,95569.31
2022-09-23T05:39:16.985Z,95566.78
2022-09-23T05:41:15.440Z,95571.00
2022-09-23T05:43:14.150Z,95572.09
2022-09-23T05:45:12.577Z,95566.59
2022-09-23T05:47:10.770Z,95562.91
2022-09-23T05:49:10.558Z,95564.97
2022-09-23T05:51:11.338Z,95561.84
2022-09-23T05:53:09.485Z,95560.66
2022-09-23T05:55:09.090Z,95561.03
2022-09-23T05:57:07.612Z,95557.81
2022-09-23T05:59:06.907Z,95562.50
2022-09-23T06:01:11.364Z,95548.06
2022-09-23T06:03:13.664Z,95550.53
2022-09-23T06:05:13.913Z,95554.44
2022-09-23T06:07:12.087Z,95550.16
2022-09-23T06:09:14.536Z,95549.19
2022-09-23T06:11:13.848Z,95543.38
2022-09-23T06:13:12.717Z,95542.53
2022-09-23T06:15:12.233Z,95544.72
2022-09-23T06:17:10.561Z,95544.16
2022-09-23T06:19:09.980Z,95558.66
2022-09-23T06:21:11.242Z,95553.16
2022-09-23T06:23:11.578Z,95555.53
2022-09-23T06:25:11.021Z,95559.28
2022-09-23T06:27:11.093Z,95546.91
2022-09-23T06:29:11.655Z,95542.69
2022-09-23T06:31:14.027Z,95548.34
2022-09-23T06:33:12.457Z,95545.97
2022-09-23T06:35:22.559Z,95549.47
2022-09-23T06:37:24.334Z,95550.75
2022-09-23T06:39:27.883Z,95552.16
2022-09-23T06:41:26.335Z,95552.84
2022-09-23T06:43:29.205Z,95551.31
2022-09-23T06:45:27.940Z,95556.56
2022-09-23T06:47:27.772Z,95560.59
2022-09-23T06:49:26.638Z,95554.75
2022-09-23T06:51:24.838Z,95554.22
2022-09-23T06:53:27.176Z,95560.56
2022-09-23T06:55:27.893Z,95560.81
2022-09-23T06:57:26.138Z,95559.63
2022-09-23T06:59:25.144Z,95560.34
2022-09-23T07:01:23.363Z,95569.66
2022-09-23T07:03:22.346Z,95570.72
2022-09-23T07:05:22.340Z,95569.06
2022-09-23T07:07:20.892Z,95568.22
2022-09-23T07:09:20.727Z,95568.66
2022-09-23T07:11:22.498Z,95570.63
2022-09-23T07:13:21.150Z,95573.66
2022-09-23T07:15:19.364Z,95581.19
2022-09-23T07:17:17.577Z,95574.38
2022-09-23T07:19:16.094Z,95581.72
2022-09-23T07:21:17.949Z,95578.94
2022-09-23T07:23:17.915Z,95573.38
2022-09-23T07:25:17.550Z,95583.50
2022-09-23T07:27:16.641Z,95573.94
2022-09-23T07:29:15.856Z,95575.97
2022-09-23T07:31:20.486Z,95575.53
2022-09-23T07:33:30.754Z,95580.53
2022-09-23T07:35:30.311Z,95577.50
2022-09-23T07:37:28.697Z,95575.66
2022-09-23T07:39:27.131Z,95584.13
2022-09-23T07:41:28.947Z,95570.81
2022-09-23T07:43:31.982Z,95583.81
2022-09-23T07:45:32.038Z,95582.47
2022-09-23T07:47:31.577Z,95580.72
2022-09-23T07:49:29.925Z,95583.19
2022-09-23T07:51:35.437Z,95589.06
2022-09-23T07:53:34.615Z,95585.06
2022-09-23T07:55:33.076Z,95586.97
2022-09-23T07:57:33.185Z,95584.47
2022-09-23T07:59:32.054Z,95581.88
2022-09-23T08:01:33.102Z,95582.53
2022-09-23T08:03:31.250Z,95582.09
2022-09-23T08:05:29.645Z,95584.19
2022-09-23T08:07:27.704Z,95591.00
2022-09-23T08:09:29.239Z,95594.81
2022-09-23T08:11:28.550Z,95591.72
2022-09-23T08:13:28.100Z,95584.34
2022-09-23T08:15:27.248Z,95583.94
2022-09-23T08:17:25.525Z,95578.25
2022-09-23T08:19:23.838Z,95571.56
2022-09-23T08:21:24.610Z,95580.16
2022-09-23T08:23:23.296Z,95572.16
2022-09-23T08:25:22.732Z,95573.72
2022-09-23T08:27:21.198Z,95579.66
2022-09-23T08:29:23.075Z,95586.19
2022-09-23T08:31:21.723Z,95581.47
2022-09-23T08:33:23.391Z,95583.34
2022-09-23T08:35:22.154Z,95580.22
2022-09-23T08:37:20.195Z,95579.22
2022-09-23T08:39:20.359Z,95570.94
2022-09-23T08:41:27.328Z,95573.00
2022-09-23T08:43:29.577Z,95571.66
2022-09-23T08:45:29.763Z,95559.63
2022-09-23T08:47:32.357Z,95560.50
2022-09-23T08:49:36.665Z,95564.59
2022-09-23T08:51:41.193Z,95568.25
2022-09-23T08:53:40.442Z,95563.81
2022-09-23T08:55:43.611Z,95572.88
2022-09-23T08:58:23.531Z,95560.94
2022-09-23T09:00:24.691Z,95555.25
2022-09-23T09:02:26.358Z,95555.28
2022-09-23T09:04:28.477Z,95553.13
2022-09-23T09:06:32.131Z,95555.44
2022-09-23T09:08:34.754Z,95545.69
2022-09-23T09:10:45.761Z,95546.88
2022-09-23T09:12:46.624Z,95541.63
2022-09-23T09:14:53.293Z,95551.38
2022-09-23T09:17:02.822Z,95555.03
2022-09-23T09:19:03.281Z,95554.38
2022-09-23T09:21:12.617Z,95555.22
2022-09-23T09:23:22.634Z,95546.63
2022-09-23T09:25:28.780Z,95548.94
2022-09-23T09:27:30.216Z,95547.06
2022-09-23T09:29:35.685Z,95537.78
2022-09-23T09:31:38.995Z,95549.56
2022-09-23T09:33:42.198Z,95546.41
2022-09-23T09:35:50.408Z,95542.22
2022-09-23T09:37:49.581Z,95537.13
2022-09-23T09:39:47.814Z,95546.75
2022-09-23T09:41:49.926Z,95533.25
2022-09-23T09:43:56.370Z,95529.03
2022-09-23T09:46:08.409Z,95546.22
2022-09-23T09:48:12.156Z,95548.19
2022-09-23T09:50:21.672Z,95546.84
2022-09-23T09:52:26.902Z,95543.00
2022-09-23T09:54:27.178Z,95544.66
2022-09-23T09:56:32.287Z,95540.47
2022-09-23T09:58:41.763Z,95540.34
2022-09-23T10:00:44.073Z,95542.38
2022-09-23T10:02:42.229Z,95536.22
2022-09-23T10:04:43.123Z,95532.50
2022-09-23T10:06:41.903Z,95537.06
2022-09-23T10:08:41.738Z,95542.31
2022-09-23T10:10:41.771Z,95529.84
2022-09-23T10:12:48.729Z,95531.88
2022-09-23T10:14:50.721Z,95525.78
2022-09-23T10:17:03.693Z,95531.69
2022-09-23T10:19:04.833Z,95516.38
2022-09-23T10:21:09.423Z,95512.50
2022-09-23T10:23:10.217Z,95519.28
2022-09-23T10:25:16.972Z,95520.22
2022-09-23T10:27:15.296Z,95520.03
2022-09-23T10:29:26.216Z,95512.53
2022-09-23T10:31:27.283Z,95521.19
2022-09-23T10:33:28.973Z,95514.16
2022-09-23T10:35:29.101Z,95502.13
2022-09-23T10:37:32.818Z,95499.94
2022-09-23T10:39:48.283Z,95507.22
2022-09-23T10:42:17.044Z,95508.03
2022-09-23T10:44:51.477Z,95512.38
2022-09-23T10:47:01.154Z,95509.28
2022-09-23T10:49:20.874Z,95506.19
2022-09-23T10:51:26.539Z,95509.88
2022-09-23T10:53:35.185Z,95509.28
2022-09-23T10:55:46.028Z,95495.41
2022-09-23T10:58:05.904Z,95502.66
2022-09-23T11:00:11.500Z,95494.84
2022-09-23T11:02:26.376Z,95498.28
2022-09-23T11:04:55.449Z,95497.47
2022-09-23T11:07:09.028Z,95493.25
2022-09-23T11:09:25.206Z,95489.56
2022-09-23T11:11:37.939Z,95487.28
2022-09-23T11:13:54.518Z,95481.56
2022-09-23T11:16:04.078Z,95480.78
2022-09-23T11:18:29.271Z,95480.03
2022-09-23T11:20:46.012Z,95481.44
2022-09-23T11:22:57.587Z,95469.09
2022-09-23T11:25:09.033Z,95467.53
2022-09-23T11:27:20.376Z,95472.41
2022-09-23T11:29:34.482Z,95471.03
2022-09-23T11:31:39.021Z,95462.03
2022-09-23T11:33:50.884Z,95464.09
2022-09-23T11:35:52.724Z,95467.91
2022-09-23T11:37:56.972Z,95470.84
2022-09-23T11:40:02.333Z,95462.41
2022-09-23T11:42:02.760Z,95459.91
2022-09-23T11:44:08.499Z,95455.72
2022-09-23T11:46:16.059Z,95451.56
2022-09-23T11:48:19.769Z,95445.56
2022-09-23T11:50:26.020Z,95448.16
2022-09-23T11:52:29.557Z,95453.19
2022-09-23T11:54:34.871Z,95454.34
2022-09-23T11:56:40.419Z,95446.13
2022-09-23T11:58:50.426Z,95446.94
2022-09-23T12:01:01.657Z,95442.69
2022-09-23T12:03:32.784Z,95450.03
2022-09-23T12:05:40.750Z,95450.47
2022-09-23T12:08:03.794Z,95462.03
2022-09-23T12:10:07.709Z,95469.25
2022-09-23T12:12:26.879Z,95469.56
2022-09-23T12:14:37.666Z,95466.47
2022-09-23T12:17:08.507Z,95474.53
2022-09-23T12:19:28.088Z,95474.41
2022-09-23T12:21:51.730Z,95463.47
2022-09-23T12:24:19.561Z,95474.47
2022-09-23T12:26:28.190Z,95457.75
2022-09-23T12:28:37.460Z,95459.34
2022-09-23T12:30:40.327Z,95451.75
2022-09-23T12:32:40.972Z,95453.91
2022-09-23T12:34:49.184Z,95450.31
2022-09-23T12:36:47.872Z,95450.50
2022-09-23T12:38:55.320Z,95451.72
2022-09-23T12:40:55.995Z,95449.09
2022-09-23T12:42:54.204Z,95449.50
2022-09-23T12:45:20.403Z,95457.94
2022-09-23T12:47:41.373Z,95461.66
2022-09-23T12:49:41.442Z,95465.34
2022-09-23T12:52:26.238Z,95457.00
2022-09-23T12:54:26.152Z,95456.03
2022-09-23T12:56:27.610Z,95446.41
2022-09-23T12:58:58.990Z,95445.06
2022-09-23T13:01:24.625Z,95444.31
2022-09-23T13:03:50.623Z,95445.78
2022-09-23T13:06:11.055Z,95445.09
2022-09-23T13:08:19.632Z,95442.75
2022-09-23T13:10:25.804Z,95438.50
2022-09-23T13:12:29.700Z,95448.50
2022-09-23T13:14:39.986Z,95440.19
2022-09-23T13:16:43.802Z,95441.00
2022-09-23T13:18:56.546Z,95452.13
2022-09-23T13:20:56.997Z,95457.78
2022-09-23T13:23:07.279Z,95449.22
2022-09-23T13:25:20.637Z,95446.97
2022-09-23T13:27:31.048Z,95449.38
2022-09-23T13:29:37.543Z,95441.84
2022-09-23T13:31:35.936Z,95440.53
2022-09-23T13:33:46.377Z,95432.69
2022-09-23T13:35:51.772Z,95438.19
2022-09-23T13:37:53.126Z,95429.78
2022-09-23T13:40:07.576Z,95439.75
2022-09-23T13:42:17.122Z,95434.16
2022-09-23T13:44:21.782Z,95442.75
2022-09-23T13:46:31.073Z,95439.16
2022-09-23T13:48:33.018Z,95435.41
2022-09-23T13:50:34.852Z,95437.22
2022-09-23T13:52:37.140Z,95434.88
2022-09-23T13:54:56.371Z,95432.97
2022-09-23T13:56:54.495Z,95423.31
2022-09-23T13:58:52.791Z,95424.34
2022-09-23T14:00:52.062Z,95423.50
2022-09-23T14:02:50.277Z,95422.69
2022-09-23T14:04:48.564Z,95428.72
2022-09-23T14:06:47.054Z,95420.31
2022-09-23T14:08:47.344Z,95423.84
2022-09-23T14:13:26.229Z,95420.38
2022-09-23T14:15:24.638Z,95418.00
2022-09-23T14:17:24.271Z,95411.94
2022-09-23T14:19:24.269Z,95419.59
2022-09-23T14:21:35.147Z,95410.66
2022-09-23T14:23:36.553Z,95416.69
2022-09-23T14:25:38.927Z,95415.78
2022-09-23T14:27:39.760Z,95420.72
2022-09-23T14:29:40.988Z,95423.53
2022-09-23T14:32:03.573Z,95420.13
2022-09-23T14:34:27.670Z,95415.69
2022-09-23T14:36:43.649Z,95419.44
2022-09-23T14:38:53.905Z,95416.81
2022-09-23T14:40:54.605Z,95424.41
2022-09-23T14:43:00.674Z,95410.41
2022-09-23T14:44:58.886Z,95414.03
2022-09-23T14:47:00.092Z,95407.94
2022-09-23T14:49:06.026Z,95411.94
2022-09-23T14:51:14.618Z,95411.09
2022-09-23T14:53:46.427Z,95415.94
2022-09-23T14:55:45.412Z,95412.56
2022-09-23T14:57:44.680Z,95406.78
2022-09-23T14:59:50.671Z,95403.78
2022-09-23T15:01:48.744Z,95409.94
2022-09-23T15:03:48.595Z,95402.41
2022-09-23T15:05:48.056Z,95407.53
2022-09-23T15:07:51.103Z,95413.38
2022-09-23T15:09:49.409Z,95408.00
2022-09-23T15:11:47.881Z,95411.94
2022-09-23T15:13:51.287Z,95409.91
2022-09-23T15:15:53.727Z,95410.03
2022-09-23T15:17:52.096Z,95407.31
2022-09-23T15:19:58.744Z,95414.28
2022-09-23T15:21:56.945Z,95424.25
2022-09-23T15:23:57.536Z,95422.78
2022-09-23T15:25:55.779Z,95416.69
2022-09-23T15:28:02.428Z,95419.44
2022-09-23T15:30:18.940Z,95419.91
2022-09-23T15:32:19.052Z,95417.25
2022-09-23T15:34:19.113Z,95428.31
2022-09-23T15:36:19.379Z,95422.41
2022-09-23T15:38:18.672Z,95419.03
2022-09-23T15:40:21.108Z,95421.50
2022-09-23T15:42:19.594Z,95422.56
2022-09-23T15:44:21.530Z,95431.78
2022-09-23T15:46:23.330Z,95438.94
2022-09-23T15:48:24.942Z,95435.09
2022-09-23T15:50:41.579Z,95436.81
2022-09-23T15:52:48.405Z,95443.28
2022-09-23T15:54:49.971Z,95445.97
2022-09-23T15:56:48.568Z,95445.84
2022-09-23T15:58:47.205Z,95454.44
2022-09-23T16:00:46.067Z,95447.78
2022-09-23T16:02:52.633Z,95454.44
2022-09-23T16:04:55.668Z,95453.38
2022-09-23T16:07:01.689Z,95459.09
2022-09-23T16:09:03.511Z,95458.47
2022-09-23T16:11:02.511Z,95451.00
2022-09-23T16:13:04.049Z,95458.66
2022-09-23T16:15:03.585Z,95465.63
2022-09-23T16:17:03.539Z,95462.28
2022-09-23T16:19:09.073Z,95468.69
2022-09-23T16:21:13.711Z,95470.38
2022-09-23T16:23:35.313Z,95462.75
2022-09-23T16:25:37.339Z,95462.47
2022-09-23T16:27:37.410Z,95466.25
2022-09-23T16:29:35.844Z,95475.69
2022-09-23T16:31:34.491Z,95472.22
2022-09-23T16:33:32.722Z,95466.94
2022-09-23T16:35:34.658Z,95476.38
2022-09-23T16:37:35.179Z,95469.16
2022-09-23T16:39:33.540Z,95476.94
2022-09-23T16:41:32.594Z,95474.84
2022-09-23T16:43:39.567Z,95480.78
2022-09-23T16:45:38.265Z,95482.03
2022-09-23T16:47:44.430Z,95485.75
2022-09-23T16:49:43.564Z,95486.56
2022-09-23T16:51:42.046Z,95489.75
2022-09-23T16:53:42.659Z,95482.13
2022-09-23T16:55:41.261Z,95488.22
2022-09-23T16:57:41.099Z,95490.28
2022-09-23T16:59:56.637Z,95495.97
2022-09-23T17:02:12.431Z,95503.59
2022-09-23T17:04:11.472Z,95497.44
2022-09-23T17:06:12.269Z,95504.34
2022-09-23T17:08:13.244Z,95508.91
2022-09-23T17:10:13.133Z,95509.56
2022-09-23T17:12:17.954Z,95513.44
2022-09-23T17:14:16.309Z,95515.00
2022-09-23T17:16:24.971Z,95520.38
2022-09-23T17:18:23.305Z,95516.34
2022-09-23T17:20:22.284Z,95523.25
2022-09-23T17:22:20.741Z,95523.25
2022-09-23T17:24:19.127Z,95522.69
2022-09-23T17:26:18.742Z,95525.72
2022-09-23T17:28:17.112Z,95527.69
2022-09-23T17:30:15.784Z,95523.50
2022-09-23T17:32:14.179Z,95534.53
2022-09-23T17:34:12.933Z,95533.84
2022-09-23T17:36:13.388Z,95538.41
2022-09-23T17:38:11.990Z,95538.22
2022-09-23T17:40:13.114Z,95542.56
2022-09-23T17:42:13.270Z,95536.25
2022-09-23T17:44:11.621Z,95532.69
2022-09-23T17:46:12.920Z,95535.09
2022-09-23T17:48:11.054Z,95538.94
2022-09-23T17:50:09.946Z,95541.06
2022-09-23T17:52:08.380Z,95543.94
2022-09-23T17:54:06.689Z,95537.53
2022-09-23T17:56:06.811Z,95539.63
2022-09-23T17:58:06.669Z,95535.25
2022-09-23T18:00:05.810Z,95543.88
2022-09-23T18:02:15.426Z,95548.88
2022-09-23T18:04:14.243Z,95546.53
2022-09-23T18:06:14.145Z,95549.91
2022-09-23T18:08:12.434Z,95550.16
2022-09-23T18:10:11.000Z,95558.03
2022-09-23T18:12:09.352Z,95561.63
2022-09-23T18:14:15.425Z,95558.16
2022-09-23T18:16:13.704Z,95560.56
2022-09-23T18:18:11.944Z,95560.66
2022-09-23T18:20:11.374Z,95560.28
2022-09-23T18:22:09.622Z,95565.34
2022-09-23T18:26:28.196Z,95568.13
2022-09-23T18:28:26.334Z,95559.50
2022-09-23T18:30:25.853Z,95567.75
2022-09-23T18:32:24.182Z,95559.03
2022-09-23T18:34:22.435Z,95563.09
2022-09-23T18:36:21.238Z,95560.72
2022-09-23T18:38:20.597Z,95559.63
2022-09-23T18:40:19.273Z,95565.47
2022-09-23T18:42:17.560Z,95569.44
2022-09-23T18:44:16.973Z,95568.59
2022-09-23T18:46:18.387Z,95572.66
2022-09-23T18:48:34.144Z,95570.88
2022-09-23T18:50:43.107Z,95571.25
2022-09-23T18:52:41.259Z,95568.25
2022-09-23T18:54:39.555Z,95571.09
2022-09-23T18:56:42.116Z,95574.34
2022-09-23T18:58:40.359Z,95579.59
2022-09-23T19:00:38.689Z,95579.81
2022-09-23T19:02:38.280Z,95579.59
2022-09-23T19:04:36.442Z,95575.53
2022-09-23T19:06:35.821Z,95586.34
2022-09-23T19:08:34.463Z,95586.25
2022-09-23T19:10:32.501Z,95586.50
2022-09-23T19:12:31.093Z,95584.09
2022-09-23T19:14:29.256Z,95589.56
2022-09-23T19:16:27.960Z,95584.53
2022-09-23T19:18:29.173Z,95595.06
2022-09-23T19:20:27.251Z,95589.50
2022-09-23T19:22:25.745Z,95584.84
2022-09-23T19:24:24.034Z,95582.44
2022-09-23T19:26:24.822Z,95590.31
2022-09-23T19:28:25.035Z,95596.75
2022-09-23T19:30:23.262Z,95594.00
2022-09-23T19:32:24.450Z,95596.00
2022-09-23T19:34:26.013Z,95588.09
2022-09-23T19:36:26.899Z,95595.19
2022-09-23T19:38:25.128Z,95590.06
2022-09-23T19:40:23.239Z,95595.75
2022-09-23T19:42:22.621Z,95597.91
2022-09-23T19:44:20.977Z,95599.78
2022-09-23T19:46:19.494Z,95593.28
2022-09-23T19:48:17.778Z,95590.78
2022-09-23T19:50:17.509Z,95601.50
2022-09-23T19:52:15.649Z,95599.09
2022-09-23T19:54:20.886Z,95597.69
2022-09-23T19:56:19.930Z,95598.16
2022-09-23T19:58:18.315Z,95599.00
2022-09-23T20:00:17.055Z,95602.34
2022-09-23T20:02:16.646Z,95592.56
2022-09-23T20:04:15.789Z,95595.19
2022-09-23T20:06:15.980Z,95585.44
2022-09-23T20:08:14.302Z,95591.28
2022-09-23T20:10:13.321Z,95589.50
2022-09-23T20:12:12.456Z,95586.97
2022-09-23T20:14:12.968Z,95595.69
2022-09-23T20:16:12.443Z,95586.34
2022-09-23T20:18:11.303Z,95591.72
2022-09-23T20:20:11.304Z,95591.88
2022-09-23T20:22:28.525Z,95593.00
2022-09-23T20:24:30.734Z,95594.19
2022-09-23T20:26:46.371Z,95592.53
2022-09-23T20:28:44.585Z,95599.56
2022-09-23T20:30:43.960Z,95595.38
2022-09-23T20:32:44.779Z,95598.94
2022-09-23T20:34:46.700Z,95600.31
2022-09-23T20:36:45.007Z,95601.59
2022-09-23T20:38:44.738Z,95603.13
2022-09-23T20:40:55.874Z,95604.06
2022-09-23T20:42:54.658Z,95610.50
2022-09-23T20:44:52.978Z,95614.03
2022-09-23T20:46:51.876Z,95614.66
2022-09-23T20:48:50.986Z,95610.72
2022-09-23T20:50:51.290Z,95611.53
2022-09-23T20:52:49.531Z,95616.03
2022-09-23T20:54:50.390Z,95619.22
2022-09-23T20:56:49.223Z,95618.94
2022-09-23T20:58:48.749Z,95622.13
2022-09-23T21:00:47.406Z,95627.44
2022-09-23T21:02:46.270Z,95625.34
2022-09-23T21:04:44.689Z,95623.44
2022-09-23T21:06:43.037Z,95625.16
2022-09-23T21:08:42.519Z,95620.00
2022-09-23T21:10:42.271Z,95620.81
2022-09-23T21:12:40.515Z,95622.72
2022-09-23T21:14:39.546Z,95626.63
2022-09-23T21:16:37.787Z,95626.00
2022-09-23T21:18:37.191Z,95624.75
2022-09-23T21:20:35.534Z,95629.38
2022-09-23T21:22:35.770Z,95621.00
2022-09-23T21:25:03.841Z,95622.88
2022-09-23T21:26:53.596Z,95620.38
2022-09-23T21:28:53.050Z,95618.94
2022-09-23T21:30:52.161Z,95618.31
2022-09-23T21:32:50.429Z,95613.38
2022-09-23T21:34:49.238Z,95627.53
2022-09-23T21:36:49.083Z,95619.78
2022-09-23T21:38:47.316Z,95620.63
2022-09-23T21:40:56.792Z,95626.78
2022-09-23T21:42:59.305Z,95629.00
2022-09-23T21:44:59.506Z,95631.06
2022-09-23T21:47:00.578Z,95627.53
2022-09-23T21:48:58.817Z,95640.50
2022-09-23T21:50:58.915Z,95637.78
2022-09-23T21:52:57.264Z,95644.19
2022-09-23T21:54:55.465Z,95641.66
2022-09-23T21:56:54.440Z,95645.34
2022-09-23T21:58:55.177Z,95648.50
2022-09-23T22:00:53.302Z,95644.88
2022-09-23T22:02:53.432Z,95650.75
2022-09-23T22:04:51.565Z,95646.94
2022-09-23T22:06:49.889Z,95643.88
2022-09-23T22:08:49.654Z,95641.81
2022-09-23T22:10:47.914Z,95642.97
2022-09-23T22:12:49.015Z,95643.41
2022-09-23T22:14:49.082Z,95638.19
2022-09-23T22:16:47.746Z,95631.34
2022-09-23T22:18:46.096Z,95641.81
2022-09-23T22:20:44.350Z,95637.28
2022-09-23T22:22:42.553Z,95640.50
2022-09-23T22:24:44.810Z,95642.69
2022-09-23T22:26:45.073Z,95646.97
2022-09-23T22:29:00.419Z,95641.00
2022-09-23T22:31:18.250Z,95646.41
2022-09-23T22:33:16.796Z,95651.78
2022-09-23T22:35:17.860Z,95648.72
2022-09-23T22:37:17.966Z,95647.56
2022-09-23T22:39:16.314Z,95648.91
2022-09-23T22:41:15.263Z,95646.50
2022-09-23T22:43:14.115Z,95642.72
2022-09-23T22:45:13.276Z,95645.00
2022-09-23T22:47:13.138Z,95638.50
2022-09-23T22:49:12.372Z,95640.28
2022-09-23T22:51:12.515Z,95643.28
2022-09-23T22:53:11.110Z,95635.25
2022-09-23T22:55:10.173Z,95638.06
2022-09-23T22:57:09.624Z,95635.56
2022-09-23T22:59:09.337Z,95642.38
2022-09-23T23:01:07.550Z,95636.84
2022-09-23T23:03:07.574Z,95640.22
2022-09-23T23:05:06.752Z,95643.03
2022-09-23T23:07:07.018Z,95637.47
2022-09-23T23:09:08.119Z,95640.56
2022-09-23T23:11:10.196Z,95641.81
2022-09-23T23:13:08.434Z,95642.84
2022-09-23T23:15:07.634Z,95643.22
2022-09-23T23:17:08.607Z,95647.91
2022-09-23T23:19:13.688Z,95636.97
2022-09-23T23:21:13.667Z,95644.22
2022-09-23T23:23:11.781Z,95645.78
2022-09-23T23:25:10.769Z,95649.25
2022-09-23T23:27:09.090Z,95646.00
2022-09-23T23:29:07.475Z,95646.69
2022-09-23T23:31:06.398Z,95638.47
2022-09-23T23:33:04.756Z,95643.19
2022-09-23T23:35:04.888Z,95642.53
2022-09-23T23:37:03.243Z,95645.34
2022-09-23T23:39:01.427Z,95641.69
2022-09-23T23:41:03.275Z,95644.31
2022-09-23T23:43:02.186Z,95640.75
2022-09-23T23:45:00.251Z,95634.38
2022-09-23T23:46:58.588Z,95637.66
2022-09-23T23:48:58.225Z,95628.13
2022-09-23T23:50:59.941Z,95621.97
2022-09-23T23:52:59.474Z,95623.75
2022-09-23T23:54:57.741Z,95627.88
2022-09-23T23:56:55.842Z,95622.47
2022-09-23T23:58:57.540Z,95620.31
